createdAt,value
2018-07-04T00:00:59.193Z,2.25
2018-07-04T00:03:39.036Z,2.10
2018-07-04T00:06:18.711Z,2.20
2018-07-04T00:08:58.386Z,2.35
2018-07-04T00:11:38.009Z,2.10
2018-07-04T00:14:19.016Z,2.00
2018-07-04T00:16:58.740Z,2.22
2018-07-04T00:19:38.426Z,1.95
2018-07-04T00:22:18.202Z,2.47
2018-07-04T00:24:58.758Z,2.47
2018-07-04T00:27:38.658Z,2.27
2018-07-04T00:30:18.428Z,2.47
2018-07-04T00:32:58.243Z,2.35
2018-07-04T00:35:37.935Z,2.20
2018-07-04T00:38:18.334Z,2.45
2018-07-04T00:40:58.097Z,2.40
2018-07-04T00:43:37.624Z,2.60
2018-07-04T00:46:17.346Z,2.87
2018-07-04T00:48:57.180Z,3.62
2018-07-04T00:51:37.577Z,2.98
2018-07-04T00:54:17.233Z,2.70
2018-07-04T00:56:56.867Z,3.00
2018-07-04T00:59:36.401Z,2.83
2018-07-04T01:02:15.953Z,2.50
2018-07-04T01:04:55.773Z,2.67
2018-07-04T01:07:35.610Z,2.60
2018-07-04T01:10:15.336Z,2.62
2018-07-04T01:12:55.838Z,2.90
2018-07-04T01:15:35.553Z,2.45
2018-07-04T01:18:15.365Z,2.65
2018-07-04T01:21:00.968Z,2.87
2018-07-04T01:23:40.592Z,2.72
2018-07-04T01:26:14.235Z,2.60
2018-07-04T01:28:54.092Z,2.55
2018-07-04T01:31:33.860Z,2.75
2018-07-04T01:34:13.645Z,3.12
2018-07-04T01:36:53.528Z,3.35
2018-07-04T01:39:33.509Z,3.20
2018-07-04T01:42:13.314Z,2.98
2018-07-04T01:44:53.010Z,3.22
2018-07-04T01:47:26.672Z,3.40
2018-07-04T01:50:06.481Z,3.10
2018-07-04T01:52:46.181Z,2.98
2018-07-04T01:55:25.932Z,3.65
2018-07-04T01:58:05.573Z,3.55
2018-07-04T02:00:46.279Z,4.00
2018-07-04T02:03:26.337Z,3.45
2018-07-04T02:06:06.158Z,4.03
2018-07-04T02:08:46.205Z,3.85
2018-07-04T02:11:26.175Z,3.70
2018-07-04T02:14:06.060Z,3.40
2018-07-04T02:16:45.990Z,3.80
2018-07-04T02:19:25.543Z,4.35
2018-07-04T02:22:05.197Z,3.75
2018-07-04T02:24:44.829Z,3.75
2018-07-04T02:27:24.432Z,3.20
2018-07-04T02:30:04.107Z,3.42
2018-07-04T02:32:43.842Z,3.27
2018-07-04T02:35:23.582Z,3.75
2018-07-04T02:38:03.220Z,3.17
2018-07-04T02:40:44.123Z,3.58
2018-07-04T02:43:24.812Z,3.45
2018-07-04T02:46:04.665Z,3.65
2018-07-04T02:48:44.453Z,4.15
2018-07-04T02:51:24.124Z,3.40
2018-07-04T02:54:04.056Z,3.20
2018-07-04T02:56:43.793Z,3.20
2018-07-04T02:59:27.544Z,3.27
2018-07-04T03:02:07.533Z,3.55
2018-07-04T03:04:47.406Z,3.80
2018-07-04T03:07:27.058Z,3.58
2018-07-04T03:10:06.863Z,3.90
2018-07-04T03:12:46.494Z,3.58
2018-07-04T03:15:26.316Z,4.08
2018-07-04T03:31:11.182Z,3.90
2018-07-04T03:33:50.797Z,4.10
2018-07-04T03:36:34.762Z,3.58
2018-07-04T03:39:14.388Z,3.75
2018-07-04T03:41:54.204Z,4.03
2018-07-04T03:44:33.881Z,4.17
2018-07-04T03:47:13.606Z,3.67
2018-07-04T03:49:53.303Z,3.80
2018-07-04T03:52:33.797Z,3.80
2018-07-04T03:55:14.313Z,3.58
2018-07-04T03:57:54.170Z,3.55
2018-07-04T04:00:34.928Z,3.95
2018-07-04T04:03:14.533Z,3.67
2018-07-04T04:05:58.961Z,4.20
2018-07-04T04:08:39.469Z,3.60
2018-07-04T04:11:19.277Z,4.10
2018-07-04T04:13:58.873Z,3.50
2018-07-04T04:16:39.160Z,4.12
2018-07-04T04:19:23.169Z,4.00
2018-07-04T04:22:02.978Z,4.47
2018-07-04T04:24:43.531Z,4.47
2018-07-04T04:27:23.621Z,4.90
2018-07-04T04:30:03.280Z,5.30
2018-07-04T04:32:42.842Z,4.72
2018-07-04T04:35:22.733Z,5.33
2018-07-04T04:38:02.682Z,5.35
2018-07-04T04:40:42.369Z,5.17
2018-07-04T04:43:22.097Z,5.22
2018-07-04T04:46:01.806Z,5.25
2018-07-04T04:48:42.374Z,5.40
2018-07-04T04:51:22.180Z,5.30
2018-07-04T04:54:02.006Z,5.53
2018-07-04T04:56:44.077Z,5.42
2018-07-04T04:59:23.890Z,5.97
2018-07-04T05:02:03.412Z,6.00
2018-07-04T05:04:43.173Z,6.20
2018-07-04T05:07:24.365Z,5.83
2018-07-04T05:10:04.194Z,5.60
2018-07-04T05:12:44.053Z,6.22
2018-07-04T05:15:23.737Z,5.62
2018-07-04T05:18:03.788Z,5.97
2018-07-04T05:20:43.521Z,6.17
2018-07-04T05:33:08.921Z,5.62
2018-07-04T05:35:48.538Z,5.62
2018-07-04T05:38:28.114Z,5.12
2018-07-04T05:41:08.241Z,5.53
2018-07-04T05:43:52.729Z,4.60
2018-07-04T05:46:32.728Z,5.00
2018-07-04T05:49:12.518Z,5.28
2018-07-04T05:51:52.171Z,4.58
2018-07-04T05:54:32.150Z,4.60
2018-07-04T05:57:11.800Z,4.45
2018-07-04T05:59:51.506Z,4.62
2018-07-04T06:02:31.104Z,4.75
2018-07-04T06:05:11.209Z,4.10
2018-07-04T06:07:51.131Z,4.75
2018-07-04T06:10:30.832Z,3.90
2018-07-04T06:13:10.542Z,4.20
2018-07-04T06:15:50.086Z,4.22
2018-07-04T06:18:29.901Z,4.22
2018-07-04T06:21:09.670Z,3.83
2018-07-04T06:23:50.035Z,3.45
2018-07-04T06:26:29.861Z,3.52
2018-07-04T06:29:10.096Z,4.30
2018-07-04T06:31:49.866Z,4.00
2018-07-04T06:34:29.461Z,3.30
2018-07-04T06:37:09.092Z,3.27
2018-07-04T06:39:36.381Z,3.75
2018-07-04T06:42:03.707Z,3.27
2018-07-04T06:44:31.112Z,3.15
2018-07-04T06:46:58.853Z,2.90
2018-07-04T06:49:26.181Z,3.33
2018-07-04T06:51:53.488Z,2.98
2018-07-04T06:54:21.188Z,3.02
2018-07-04T06:56:48.477Z,2.50
2018-07-04T06:59:15.804Z,2.83
2018-07-04T07:01:43.101Z,2.40
2018-07-04T07:04:22.873Z,2.40
2018-07-04T07:07:02.630Z,2.62
2018-07-04T07:09:42.605Z,2.45
2018-07-04T07:12:22.396Z,2.52
2018-07-04T07:15:02.197Z,2.55
2018-07-04T07:17:41.824Z,2.20
2018-07-04T07:20:22.086Z,2.47
2018-07-04T07:23:02.072Z,2.17
2018-07-04T07:25:41.824Z,1.98
2018-07-04T07:28:21.423Z,2.22
2018-07-04T07:31:01.395Z,2.42
2018-07-04T07:33:41.405Z,2.22
2018-07-04T07:36:21.469Z,2.10
2018-07-04T07:39:01.130Z,2.22
2018-07-04T07:41:40.875Z,2.35
2018-07-04T07:44:20.576Z,2.10
2018-07-04T07:47:00.754Z,2.05
2018-07-04T07:49:40.369Z,2.10
2018-07-04T07:52:20.243Z,2.30
2018-07-04T07:54:59.840Z,2.20
2018-07-04T07:57:39.470Z,2.52
2018-07-04T08:00:21.181Z,2.42
2018-07-04T08:03:01.118Z,2.30
2018-07-04T08:05:40.798Z,2.25
2018-07-04T08:08:20.449Z,2.10
2018-07-04T08:11:00.197Z,2.15
2018-07-04T08:13:40.050Z,2.33
2018-07-04T08:16:20.325Z,2.40
2018-07-04T08:19:00.168Z,2.17
2018-07-04T08:21:39.824Z,2.20
2018-07-04T08:24:19.744Z,2.58
2018-07-04T08:26:59.636Z,2.47
2018-07-04T08:29:39.669Z,2.20
2018-07-04T08:32:19.442Z,2.20
2018-07-04T08:34:59.813Z,2.62
2018-07-04T08:37:39.322Z,2.08
2018-07-04T08:40:18.957Z,2.17
2018-07-04T08:42:58.569Z,2.30
2018-07-04T08:45:38.319Z,2.50
2018-07-04T08:48:18.149Z,2.35
2018-07-04T08:50:57.873Z,2.50
2018-07-04T08:53:31.528Z,2.83
2018-07-04T08:56:11.227Z,3.00
2018-07-04T08:58:50.785Z,2.62
2018-07-04T09:01:30.685Z,1.87
2018-07-04T09:04:10.908Z,2.20
2018-07-04T09:06:50.900Z,2.20
2018-07-04T09:09:30.547Z,2.12
2018-07-04T09:12:10.505Z,2.35
2018-07-04T09:14:50.381Z,2.00
2018-07-04T09:17:30.166Z,2.20
2018-07-04T09:20:10.553Z,2.00
2018-07-04T09:22:51.181Z,1.80
2018-07-04T09:25:31.081Z,2.10
2018-07-04T09:28:10.878Z,2.10
2018-07-04T09:30:50.773Z,1.85
2018-07-04T09:33:31.468Z,2.12
2018-07-04T09:36:11.460Z,2.40
2018-07-04T09:38:51.260Z,2.10
2018-07-04T09:41:31.338Z,2.05
2018-07-04T09:44:11.882Z,1.87
2018-07-04T09:46:51.471Z,2.02
2018-07-04T09:49:31.916Z,1.80
2018-07-04T09:52:11.608Z,1.90
2018-07-04T09:54:45.231Z,2.10
2018-07-04T09:57:24.801Z,2.35
2018-07-04T10:00:04.515Z,2.20
2018-07-04T10:02:44.256Z,1.80
2018-07-04T10:05:24.035Z,2.05
2018-07-04T10:08:03.649Z,1.82
2018-07-04T10:10:43.508Z,1.67
2018-07-04T10:13:23.409Z,1.87
2018-07-04T10:16:03.111Z,1.87
2018-07-04T10:18:42.746Z,2.12
2018-07-04T10:21:22.461Z,1.80
2018-07-04T10:24:02.075Z,1.87
2018-07-04T10:26:41.783Z,1.77
2018-07-04T10:29:22.182Z,1.90
2018-07-04T10:32:01.996Z,1.50
2018-07-04T10:34:42.699Z,2.00
2018-07-04T10:37:23.221Z,1.80
2018-07-04T10:40:03.077Z,1.95
2018-07-04T10:42:42.789Z,1.67
2018-07-04T10:45:22.583Z,1.90
2018-07-04T10:48:02.296Z,1.90
2018-07-04T10:50:41.995Z,1.72
2018-07-04T11:03:12.003Z,1.60
2018-07-04T11:05:52.261Z,1.67
2018-07-04T11:08:32.020Z,1.70
2018-07-04T11:11:11.743Z,1.90
2018-07-04T11:13:51.560Z,1.67
2018-07-04T11:16:31.240Z,2.00
2018-07-04T11:19:10.984Z,2.50
2018-07-04T11:21:50.703Z,1.90
2018-07-04T11:24:30.461Z,2.10
2018-07-04T11:27:10.190Z,2.12
2018-07-04T11:29:49.989Z,2.05
2018-07-04T11:32:29.984Z,1.67
2018-07-04T11:48:08.840Z,1.80
2018-07-04T11:50:36.131Z,2.08
2018-07-04T11:53:04.331Z,2.00
2018-07-04T11:55:31.746Z,2.47
2018-07-04T11:57:59.176Z,2.00
2018-07-04T12:00:26.497Z,1.92
2018-07-04T12:02:53.842Z,1.82
2018-07-04T12:05:33.944Z,1.90
2018-07-04T12:08:01.317Z,1.80
2018-07-04T12:10:28.630Z,1.82
2018-07-04T12:12:56.050Z,1.92
2018-07-04T12:15:23.980Z,2.05
2018-07-04T12:17:51.464Z,1.90
2018-07-04T12:20:18.785Z,2.12
2018-07-04T12:22:51.336Z,1.90
2018-07-04T12:25:18.779Z,2.00
2018-07-04T12:27:46.101Z,1.90
2018-07-04T12:30:13.497Z,1.90
2018-07-04T12:32:41.143Z,1.77
2018-07-04T12:35:08.878Z,1.95
2018-07-04T12:37:36.193Z,1.72
2018-07-04T12:40:03.509Z,1.80
2018-07-04T12:42:30.812Z,1.80
2018-07-04T12:44:58.145Z,1.77
2018-07-04T12:47:25.506Z,1.80
2018-07-04T12:49:52.774Z,1.80
2018-07-04T12:52:20.095Z,1.95
2018-07-04T12:54:54.178Z,2.05
2018-07-04T12:57:33.835Z,1.90
2018-07-04T13:00:13.650Z,2.12
2018-07-04T13:02:53.460Z,1.90
2018-07-04T13:05:33.794Z,1.80
2018-07-04T13:08:13.566Z,2.10
2018-07-04T13:10:53.323Z,2.00
2018-07-04T13:13:33.121Z,1.90
2018-07-04T13:16:12.769Z,2.20
2018-07-04T13:18:52.410Z,2.20
2018-07-04T13:21:32.170Z,2.10
2018-07-04T13:24:11.847Z,2.27
2018-07-04T13:26:51.926Z,2.20
2018-07-04T13:29:31.619Z,2.10
2018-07-04T13:32:11.429Z,1.85
2018-07-04T13:34:51.224Z,2.27
2018-07-04T13:37:30.929Z,2.25
2018-07-04T13:40:10.662Z,2.00
2018-07-04T13:42:50.200Z,1.85
2018-07-04T13:45:29.786Z,1.87
2018-07-04T13:48:09.389Z,2.00
2018-07-04T13:50:49.826Z,2.10
2018-07-04T13:53:29.490Z,2.10
2018-07-04T13:56:09.654Z,1.95
2018-07-04T13:58:49.406Z,2.30
2018-07-04T14:01:29.033Z,2.30
2018-07-04T14:04:08.861Z,2.17
2018-07-04T14:06:48.334Z,1.80
2018-07-04T14:09:28.187Z,2.00
2018-07-04T14:12:07.971Z,1.70
2018-07-04T14:14:47.689Z,2.05
2018-07-04T14:17:28.182Z,2.17
2018-07-04T14:23:01.149Z,2.02
2018-07-04T14:25:40.677Z,2.10
2018-07-04T14:28:20.381Z,2.12
2018-07-04T14:31:00.242Z,2.05
2018-07-04T14:33:40.053Z,1.90
2018-07-04T14:36:20.025Z,2.05
2018-07-04T14:38:59.986Z,1.90
2018-07-04T14:41:39.676Z,2.30
2018-07-04T14:44:19.982Z,2.10
2018-07-04T14:46:59.857Z,1.98
2018-07-04T14:49:39.632Z,1.90
2018-07-04T14:52:19.580Z,2.10
2018-07-04T14:54:59.229Z,2.37
2018-07-04T14:57:43.466Z,2.25
2018-07-04T15:00:23.532Z,2.20
2018-07-04T15:03:03.763Z,2.60
2018-07-04T15:05:43.447Z,2.20
2018-07-04T15:08:23.184Z,2.52
2018-07-04T15:11:02.777Z,2.47
2018-07-04T15:13:43.006Z,2.10
2018-07-04T15:16:22.828Z,2.08
2018-07-04T15:19:03.078Z,2.50
2018-07-04T15:21:43.145Z,2.00
2018-07-04T15:24:23.241Z,6.58
2018-07-04T15:27:03.979Z,2.30
2018-07-04T15:29:43.893Z,2.10
2018-07-04T15:32:23.766Z,2.40
2018-07-04T15:35:03.461Z,2.47
2018-07-04T15:37:43.223Z,2.20
2018-07-04T15:40:22.894Z,2.05
2018-07-04T15:43:02.716Z,2.37
2018-07-04T15:45:42.582Z,2.30
2018-07-04T15:48:23.105Z,2.10
2018-07-04T15:51:02.857Z,2.30
2018-07-04T15:53:42.947Z,2.40
2018-07-04T15:56:22.859Z,2.55
2018-07-04T15:59:02.656Z,2.67
2018-07-04T16:01:42.200Z,2.20
2018-07-04T16:04:21.829Z,2.22
2018-07-04T16:07:01.640Z,2.40
2018-07-04T16:09:41.517Z,2.58
2018-07-04T16:12:25.264Z,5.05
2018-07-04T16:15:05.241Z,2.55
2018-07-04T16:17:44.991Z,2.47
2018-07-04T16:20:24.709Z,2.45
2018-07-04T16:23:05.181Z,2.67
2018-07-04T16:25:44.893Z,2.15
2018-07-04T16:28:24.649Z,2.37
2018-07-04T16:31:04.343Z,2.22
2018-07-04T16:33:44.039Z,2.17
2018-07-04T16:36:24.283Z,2.15
2018-07-04T16:39:04.705Z,2.20
2018-07-04T16:41:44.870Z,2.50
2018-07-04T16:44:24.614Z,2.35
2018-07-04T16:47:04.173Z,3.12
2018-07-04T16:49:43.840Z,3.27
2018-07-04T16:52:23.492Z,2.72
2018-07-04T16:55:03.260Z,2.55
2018-07-04T16:57:43.298Z,2.42
2018-07-04T17:00:23.314Z,2.65
2018-07-04T17:03:03.097Z,2.50
2018-07-04T17:05:42.738Z,2.27
2018-07-04T17:08:22.250Z,2.27
2018-07-04T17:11:01.931Z,3.52
2018-07-04T17:13:41.633Z,2.27
2018-07-04T17:16:21.416Z,2.30
2018-07-04T17:19:01.034Z,2.58
2018-07-04T17:21:40.894Z,3.30
2018-07-04T17:24:21.431Z,2.20
2018-07-04T17:27:01.034Z,2.47
2018-07-04T17:29:40.533Z,2.37
2018-07-04T17:32:20.204Z,3.08
2018-07-04T17:34:59.714Z,2.65
2018-07-04T17:37:39.455Z,3.30
2018-07-04T17:40:19.167Z,3.45
2018-07-04T17:42:58.799Z,2.70
2018-07-04T17:45:38.473Z,2.70
2018-07-04T17:48:22.324Z,2.52
2018-07-04T17:51:02.215Z,2.40
2018-07-04T17:53:42.321Z,2.80
2018-07-04T17:56:22.096Z,2.67
2018-07-04T17:58:55.784Z,2.62
2018-07-04T18:01:35.555Z,2.47
2018-07-04T18:04:15.358Z,2.45
2018-07-04T18:06:55.137Z,2.85
2018-07-04T18:09:34.866Z,3.40
2018-07-04T18:12:14.870Z,2.98
2018-07-04T18:14:54.728Z,2.85
2018-07-04T18:17:34.390Z,2.60
2018-07-04T18:20:14.225Z,3.22
2018-07-04T18:22:54.066Z,3.15
2018-07-04T18:25:33.904Z,3.33
2018-07-04T18:28:13.592Z,2.27
2018-07-04T18:30:53.686Z,2.50
2018-07-04T18:33:33.346Z,2.30
2018-07-04T18:36:12.949Z,2.17
2018-07-04T18:38:52.614Z,2.37
2018-07-04T18:41:32.423Z,2.90
2018-07-04T18:44:12.097Z,3.12
2018-07-04T18:46:51.864Z,3.15
2018-07-04T18:49:31.457Z,3.05
2018-07-04T18:52:11.336Z,3.72
2018-07-04T18:54:50.930Z,3.42
2018-07-04T18:57:30.484Z,3.30
2018-07-04T19:00:10.161Z,3.75
2018-07-04T19:02:49.827Z,5.17
2018-07-04T19:05:29.527Z,4.20
2018-07-04T19:08:10.012Z,3.70
2018-07-04T19:10:49.734Z,3.15
2018-07-04T19:13:29.517Z,3.40
2018-07-04T19:16:09.189Z,3.17
2018-07-04T19:18:49.106Z,3.27
2018-07-04T19:21:28.958Z,3.17
2018-07-04T19:24:08.650Z,3.30
2018-07-04T19:26:48.272Z,3.02
2018-07-04T19:29:28.184Z,2.90
2018-07-04T19:32:07.931Z,3.40
2018-07-04T19:34:45.752Z,2.80
2018-07-04T19:37:25.752Z,3.40
2018-07-04T19:40:05.569Z,2.47
2018-07-04T19:42:45.278Z,2.47
2018-07-04T19:45:25.532Z,2.80
2018-07-04T19:48:05.300Z,2.67
2018-07-04T19:50:45.086Z,2.72
2018-07-04T19:53:24.876Z,3.00
2018-07-04T19:56:04.601Z,3.30
2018-07-04T19:58:44.178Z,3.15
2018-07-04T20:01:23.984Z,3.52
2018-07-04T20:04:04.112Z,3.00
2018-07-04T20:06:43.817Z,3.02
2018-07-04T20:09:23.448Z,3.17
2018-07-04T20:12:03.131Z,3.00
2018-07-04T20:14:43.536Z,3.27
2018-07-04T20:17:23.373Z,3.00
2018-07-04T20:20:03.128Z,3.17
2018-07-04T20:22:42.813Z,3.00
2018-07-04T20:25:22.639Z,3.00
2018-07-04T20:28:02.554Z,2.98
2018-07-04T20:30:42.334Z,2.77
2018-07-04T20:33:22.128Z,2.67
2018-07-04T20:36:02.189Z,2.65
2018-07-04T20:38:41.909Z,2.87
2018-07-04T20:41:21.555Z,2.98
2018-07-04T20:44:01.239Z,3.12
2018-07-04T20:46:41.274Z,2.50
2018-07-04T20:49:21.070Z,2.70
2018-07-04T20:52:00.809Z,2.83
2018-07-04T20:54:44.654Z,3.30
2018-07-04T20:57:24.372Z,3.42
2018-07-04T21:00:04.157Z,3.00
2018-07-04T21:02:43.781Z,3.00
2018-07-04T21:05:23.650Z,2.77
2018-07-04T21:08:03.501Z,3.45
2018-07-04T21:10:43.294Z,3.00
2018-07-04T21:13:23.048Z,2.65
2018-07-04T21:16:02.817Z,3.58
2018-07-04T21:18:42.647Z,3.05
2018-07-04T21:21:22.312Z,3.10
2018-07-04T21:24:02.959Z,2.92
2018-07-04T21:26:42.753Z,3.10
2018-07-04T21:29:23.170Z,2.98
2018-07-04T21:32:02.982Z,2.80
2018-07-04T21:34:42.789Z,3.15
2018-07-04T21:37:22.336Z,3.22
2018-07-04T21:39:56.204Z,3.37
2018-07-04T21:42:36.265Z,2.87
2018-07-04T21:45:16.030Z,3.00
2018-07-04T21:47:55.633Z,3.02
2018-07-04T21:50:35.437Z,3.45
2018-07-04T21:53:15.325Z,3.22
2018-07-04T21:55:55.177Z,2.92
2018-07-04T21:58:34.871Z,3.05
2018-07-04T22:01:14.525Z,2.90
2018-07-04T22:03:54.470Z,2.87
2018-07-04T22:06:34.164Z,2.70
2018-07-04T22:09:13.906Z,2.98
2018-07-04T22:11:53.711Z,3.47
2018-07-04T22:14:33.273Z,2.77
2018-07-04T22:17:13.157Z,2.65
2018-07-04T22:19:52.829Z,2.80
2018-07-04T22:22:32.588Z,3.08
2018-07-04T22:25:12.430Z,3.10
2018-07-04T22:27:53.152Z,3.00
2018-07-04T22:30:33.520Z,2.98
2018-07-04T22:33:13.178Z,2.95
2018-07-04T22:35:52.707Z,2.60
2018-07-04T22:38:32.600Z,2.80
2018-07-04T22:41:12.465Z,2.50
2018-07-04T22:43:52.384Z,2.65
2018-07-04T22:46:32.222Z,2.50
2018-07-04T22:49:12.275Z,2.62
2018-07-04T22:51:52.768Z,2.60
2018-07-04T22:54:26.380Z,2.60
2018-07-04T22:57:06.270Z,2.42
2018-07-04T22:59:46.044Z,2.42
2018-07-04T23:02:19.736Z,2.62
2018-07-04T23:04:59.674Z,2.67
2018-07-04T23:07:39.678Z,2.20
2018-07-04T23:10:19.468Z,2.30
2018-07-04T23:12:59.220Z,2.67
2018-07-04T23:15:38.972Z,2.55
2018-07-04T23:18:18.736Z,2.50
2018-07-04T23:20:59.161Z,2.33
2018-07-04T23:23:39.096Z,2.50
2018-07-04T23:26:18.801Z,2.60
2018-07-04T23:28:58.524Z,2.17
2018-07-04T23:41:27.801Z,2.27
2018-07-04T23:44:07.600Z,2.50
2018-07-04T23:46:47.389Z,2.20
2018-07-04T23:49:27.087Z,2.12
2018-07-04T23:52:07.124Z,2.70
2018-07-04T23:54:46.889Z,2.40
2018-07-04T23:57:27.069Z,2.30
